Terminal Aerodrome Forecast
Issued by NWS Grand Forks, ND

Home | Current Version | Previous Version | Text Only | Print | Product List | Glossary Off
Versions: 1 2 3 4 5 6 7 8 9 10 11 12 13 14 15 16 17

558
FTUS43 KFGF 280351 AAA
TAFGFK
TAF AMD
KGFK 280351Z 2804/2824 03007KT P6SM BKN028
     FM281100 01004KT P6SM FEW150=

USA.gov is the U.S. government's official web portal to all federal, state and local government web resources and services.